Time;durP1;ratioP1;P1;durP2;ratioP2;P2;SDS_P1;SDS_P2;PMS_P1;PMS_P2;Temp;Humidity;BMP_temperature;BMP_pressure;BME280_temperature;BME280_humidity;BME280_pressure;Samples;Min_cycle;Max_cycle;Signal;HPM_P1;HPM_P2
2020/12/11 00:01:31;;;;;;;11.53;6.20;;;2.70;73.00;;;;;;4888248;29;20200;-87
2020/12/11 00:03:57;;;;;;;8.57;5.53;;;;;;;;;;4899984;29;20176;-86
2020/12/11 00:06:23;;;;;;;9.10;6.10;;;2.70;73.00;;;;;;4882412;29;20220;-87
2020/12/11 00:08:50;;;;;;;10.33;5.80;;;2.70;72.80;;;;;;4906517;29;20199;-87
2020/12/11 00:11:17;;;;;;;7.97;5.30;;;;;;;;;;4881639;29;20237;-86
2020/12/11 00:13:43;;;;;;;10.90;7.07;;;;;;;;;;4907741;29;20211;-86
2020/12/11 00:16:09;;;;;;;7.90;5.73;;;2.70;73.50;;;;;;4889358;29;20351;-87
2020/12/11 00:18:38;;;;;;;12.10;6.83;;;2.70;73.70;;;;;;4907758;29;20280;-87
2020/12/11 00:21:03;;;;;;;10.27;6.70;;;2.70;73.30;;;;;;4906262;29;20196;-86
2020/12/11 00:23:29;;;;;;;9.90;6.17;;;2.70;73.30;;;;;;4907770;29;20201;-87
2020/12/11 00:25:58;;;;;;;12.30;7.33;;;2.70;73.40;;;;;;4906399;29;20853;-86
2020/12/11 00:28:29;;;;;;;10.37;5.40;;;2.70;73.60;;;;;;4905051;29;20192;-86
2020/12/11 00:30:56;;;;;;;9.43;5.93;;;2.70;74.10;;;;;;4908675;29;20282;-86
2020/12/11 00:33:23;;;;;;;8.27;5.93;;;2.60;72.40;;;;;;4901274;29;20200;-85
2020/12/11 00:35:49;;;;;;;10.10;5.90;;;2.70;72.30;;;;;;4902600;29;20208;-86
2020/12/11 00:38:16;;;;;;;14.93;8.03;;;2.70;72.30;;;;;;4906670;29;20714;-86
2020/12/11 00:40:41;;;;;;;11.27;6.57;;;2.70;71.90;;;;;;4920878;29;20213;-86
2020/12/11 00:43:07;;;;;;;8.23;6.00;;;;;;;;;;4909480;29;20215;-86
2020/12/11 00:45:33;;;;;;;10.37;6.47;;;2.70;72.50;;;;;;4910745;29;20587;-86
2020/12/11 00:47:59;;;;;;;12.70;7.30;;;2.70;72.00;;;;;;4910728;29;20247;-86
2020/12/11 00:50:25;;;;;;;10.27;6.50;;;;;;;;;;4912225;29;20211;-86
2020/12/11 00:52:51;;;;;;;11.57;6.67;;;2.70;72.00;;;;;;4934285;29;20201;-86
2020/12/11 00:55:17;;;;;;;11.70;6.70;;;;;;;;;;4909655;29;20212;-86
2020/12/11 00:57:44;;;;;;;8.37;6.03;;;2.70;71.90;;;;;;4908031;29;20231;-86
2020/12/11 01:00:14;;;;;;;9.27;5.90;;;2.80;71.80;;;;;;4904076;29;20230;-86
2020/12/11 01:02:40;;;;;;;7.70;5.57;;;;;;;;;;4908188;29;20212;-86
2020/12/11 01:05:06;;;;;;;12.47;6.40;;;2.70;71.50;;;;;;4914195;29;20190;-87
2020/12/11 01:07:32;;;;;;;9.70;6.03;;;2.70;71.40;;;;;;4908471;29;20238;-86
2020/12/11 01:09:58;;;;;;;8.60;6.00;;;2.70;71.10;;;;;;4910892;29;20203;-86
2020/12/11 01:12:24;;;;;;;8.57;5.53;;;;;;;;;;4898009;29;20235;-86
2020/12/11 01:14:50;;;;;;;9.97;5.73;;;;;;;;;;4906084;29;20225;-87
2020/12/11 01:17:16;;;;;;;7.23;5.53;;;;;;;;;;4901306;29;20308;-86
2020/12/11 01:19:42;;;;;;;9.73;5.60;;;2.70;71.70;;;;;;4892881;29;20176;-86
2020/12/11 01:22:08;;;;;;;10.67;6.97;;;;;;;;;;4902694;29;20275;-86
2020/12/11 01:24:34;;;;;;;10.70;6.70;;;;;;;;;;4898595;29;20253;-86
2020/12/11 01:27:00;;;;;;;11.63;6.97;;;;;;;;;;4890326;29;20298;-86
2020/12/11 01:29:26;;;;;;;8.93;5.97;;;;;;;;;;4908771;29;20264;-86
2020/12/11 01:31:56;;;;;;;8.67;6.00;;;2.70;72.00;;;;;;4910240;29;20261;-86
2020/12/11 01:34:22;;;;;;;10.37;6.73;;;2.70;72.00;;;;;;4901532;29;22270;-87
2020/12/11 01:36:48;;;;;;;8.97;6.37;;;;;;;;;;4902198;29;20212;-87
2020/12/11 01:39:14;;;;;;;7.00;5.40;;;;;;;;;;4907907;29;20211;-86
2020/12/11 01:41:40;;;;;;;9.47;6.50;;;;;;;;;;4905358;29;20188;-86
2020/12/11 01:44:10;;;;;;;8.07;5.37;;;2.80;70.80;;;;;;4914733;29;20203;-87
2020/12/11 01:46:38;;;;;;;10.97;6.37;;;2.80;71.20;;;;;;4897039;29;20204;-87
2020/12/11 01:49:05;;;;;;;7.10;5.57;;;2.70;71.10;;;;;;4901006;29;20541;-86
2020/12/11 01:51:32;;;;;;;9.67;5.87;;;2.80;70.80;;;;;;4906823;29;20259;-86
2020/12/11 01:53:59;;;;;;;7.93;5.63;;;2.70;71.00;;;;;;4905640;29;20201;-86
2020/12/11 01:56:26;;;;;;;8.23;5.23;;;2.70;71.40;;;;;;4895629;29;20212;-86
2020/12/11 01:59:02;;;;;;;6.93;5.40;;;2.70;71.40;;;;;;4901825;29;20180;-86
2020/12/11 02:01:30;;;;;;;9.93;6.27;;;2.70;71.60;;;;;;4907339;29;20212;-87
2020/12/11 02:03:56;;;;;;;6.03;5.43;;;2.70;71.00;;;;;;4900172;29;20208;-87
2020/12/11 02:06:22;;;;;;;8.07;5.10;;;2.70;71.40;;;;;;4887426;29;20247;-86
2020/12/11 02:08:49;;;;;;;9.03;6.63;;;2.80;71.00;;;;;;4905076;29;20218;-86
2020/12/11 02:11:19;;;;;;;9.50;6.03;;;2.80;71.30;;;;;;4908555;29;20188;-86
2020/12/11 02:13:45;;;;;;;7.13;5.80;;;2.80;70.40;;;;;;4903514;29;20210;-86
2020/12/11 02:16:12;;;;;;;6.17;5.57;;;2.80;70.40;;;;;;4898327;29;20208;-86
2020/12/11 02:18:42;;;;;;;5.67;4.70;;;2.80;70.40;;;;;;4902617;29;20239;-86
2020/12/11 02:21:09;;;;;;;9.43;5.13;;;2.70;70.30;;;;;;4903627;29;20205;-86
2020/12/11 02:23:34;;;;;;;6.93;5.10;;;2.70;70.50;;;;;;4901453;29;20203;-86
2020/12/11 02:26:00;;;;;;;11.07;5.30;;;;;;;;;;4892947;29;20196;-86
2020/12/11 02:28:33;;;;;;;5.63;4.67;;;2.70;70.70;;;;;;4902653;29;20289;-86
2020/12/11 02:31:00;;;;;;;7.23;4.90;;;2.70;70.40;;;;;;4896449;29;20192;-86
2020/12/11 02:33:26;;;;;;;6.40;4.60;;;2.70;70.40;;;;;;4895261;29;20252;-86
2020/12/11 02:35:51;;;;;;;8.33;5.57;;;2.60;70.30;;;;;;4903931;29;20200;-86
2020/12/11 02:38:17;;;;;;;7.37;5.03;;;2.60;70.50;;;;;;4903220;29;20310;-86
2020/12/11 02:40:51;;;;;;;8.60;5.33;;;2.60;70.60;;;;;;4894281;29;20204;-86
2020/12/11 02:43:18;;;;;;;6.77;4.93;;;2.60;70.20;;;;;;4906043;29;20222;-86
2020/12/11 02:45:48;;;;;;;5.53;4.50;;;2.70;70.10;;;;;;4903288;29;20294;-86
2020/12/11 02:48:14;;;;;;;8.70;4.67;;;2.70;69.80;;;;;;4899660;29;20195;-86
2020/12/11 02:50:40;;;;;;;8.33;5.10;;;2.70;69.80;;;;;;4901116;29;20197;-86
2020/12/11 02:53:06;;;;;;;5.53;4.93;;;;;;;;;;4890637;29;20189;-86
2020/12/11 02:55:34;;;;;;;6.80;4.87;;;2.60;69.60;;;;;;4919253;29;20191;-87
2020/12/11 02:58:00;;;;;;;8.27;4.63;;;2.70;69.10;;;;;;4899789;29;20245;-86
2020/12/11 03:00:26;;;;;;;5.57;4.43;;;;;;;;;;4907054;29;20188;-86
2020/12/11 03:02:51;;;;;;;7.07;4.63;;;;;;;;;;4897594;29;20228;-86
2020/12/11 03:05:17;;;;;;;5.27;4.50;;;;;;;;;;4896963;29;20198;-86
2020/12/11 03:07:43;;;;;;;6.80;4.37;;;;;;;;;;4907990;29;20226;-86
2020/12/11 03:10:10;;;;;;;6.13;4.40;;;;;;;;;;4899152;29;20207;-86
2020/12/11 03:12:35;;;;;;;6.87;5.20;;;2.60;69.70;;;;;;4891986;29;20201;-86
2020/12/11 03:15:01;;;;;;;7.00;5.37;;;;;;;;;;4907232;29;20204;-87
2020/12/11 03:17:27;;;;;;;6.57;4.37;;;;;;;;;;4893224;29;20280;-86
2020/12/11 03:19:53;;;;;;;5.13;4.43;;;2.60;69.30;;;;;;4899173;29;20276;-86
2020/12/11 03:22:19;;;;;;;6.63;4.50;;;;;;;;;;4893230;29;20279;-86
2020/12/11 03:24:45;;;;;;;4.70;3.97;;;;;;;;;;4901363;29;20287;-86
2020/12/11 03:27:11;;;;;;;5.03;3.77;;;2.50;69.30;;;;;;4902011;29;20192;-87
2020/12/11 03:29:37;;;;;;;5.50;3.60;;;2.50;69.60;;;;;;4909914;29;20525;-86
2020/12/11 03:32:03;;;;;;;5.93;4.40;;;2.50;69.70;;;;;;4902689;29;20191;-86
2020/12/11 03:34:29;;;;;;;6.93;4.60;;;;;;;;;;4890437;29;20196;-86
2020/12/11 03:36:55;;;;;;;6.10;4.60;;;;;;;;;;4898734;29;20220;-86
2020/12/11 03:39:21;;;;;;;6.67;4.40;;;;;;;;;;4908909;29;20390;-86
2020/12/11 03:41:53;;;;;;;6.00;4.60;;;2.40;70.00;;;;;;4900638;29;20204;-86
2020/12/11 03:44:20;;;;;;;6.50;5.00;;;2.30;70.10;;;;;;4893752;29;20197;-86
2020/12/11 03:46:46;;;;;;;6.10;3.87;;;;;;;;;;4900884;29;20666;-86
2020/12/11 03:49:12;;;;;;;6.20;4.47;;;;;;;;;;4901628;29;20207;-86
2020/12/11 03:51:38;;;;;;;7.47;4.73;;;;;;;;;;4894838;29;20194;-86
2020/12/11 03:54:05;;;;;;;6.57;4.87;;;;;;;;;;4898932;29;20608;-86
2020/12/11 03:56:31;;;;;;;7.87;5.10;;;;;;;;;;4917864;29;20220;-86
2020/12/11 03:58:56;;;;;;;8.87;4.83;;;2.60;70.20;;;;;;4916456;29;20195;-87
2020/12/11 04:01:22;;;;;;;7.47;4.17;;;2.50;70.30;;;;;;4904287;29;20188;-86
2020/12/11 04:03:48;;;;;;;5.77;4.20;;;2.50;71.10;;;;;;4903955;29;20196;-86
2020/12/11 04:06:16;;;;;;;6.63;5.23;;;2.50;71.10;;;;;;4892247;29;20213;-86
2020/12/11 04:08:43;;;;;;;7.50;5.70;;;2.50;71.10;;;;;;4891647;29;20200;-87
2020/12/11 04:11:11;;;;;;;8.60;6.07;;;2.50;71.20;;;;;;4904915;29;20683;-86
2020/12/11 04:13:37;;;;;;;7.40;4.37;;;2.50;71.20;;;;;;4906353;29;20203;-86
2020/12/11 04:16:04;;;;;;;7.73;4.77;;;2.30;71.50;;;;;;4896179;29;20204;-86
2020/12/11 04:18:30;;;;;;;8.53;5.43;;;2.30;72.30;;;;;;4916418;29;20768;-86
2020/12/11 04:20:56;;;;;;;6.20;4.67;;;2.30;73.20;;;;;;4907709;29;20207;-86
2020/12/11 04:23:26;;;;;;;9.93;6.03;;;2.30;73.50;;;;;;4911924;29;20207;-86
2020/12/11 04:25:52;;;;;;;8.40;5.73;;;;;;;;;;4901096;29;20196;-86
2020/12/11 04:28:18;;;;;;;7.70;5.70;;;;;;;;;;4900669;29;20193;-86
2020/12/11 04:30:44;;;;;;;6.40;4.90;;;2.30;73.60;;;;;;4894574;29;20221;-86
2020/12/11 04:33:10;;;;;;;6.00;5.03;;;2.10;74.00;;;;;;4896498;29;20207;-86
2020/12/11 04:35:36;;;;;;;6.57;4.77;;;2.10;74.00;;;;;;4896252;29;20183;-86
2020/12/11 04:38:03;;;;;;;10.07;5.17;;;2.00;74.90;;;;;;4901974;29;20216;-87
2020/12/11 04:40:29;;;;;;;8.27;5.57;;;2.00;74.90;;;;;;4894116;29;20192;-86
2020/12/11 04:42:55;;;;;;;8.03;5.20;;;2.00;75.20;;;;;;4911859;29;20261;-86
2020/12/11 04:45:22;;;;;;;8.10;5.33;;;2.00;75.60;;;;;;4905054;29;20192;-86
2020/12/11 04:47:49;;;;;;;9.60;5.67;;;2.00;75.50;;;;;;4920224;29;20260;-86
2020/12/11 04:50:17;;;;;;;6.93;5.37;;;2.00;75.70;;;;;;4907478;29;20192;-86
2020/12/11 04:52:44;;;;;;;7.93;4.67;;;2.00;75.70;;;;;;4900210;29;20203;-86
2020/12/11 04:55:20;;;;;;;8.40;4.90;;;2.00;75.90;;;;;;4906821;29;20200;-86
2020/12/11 04:57:51;;;;;;;8.40;5.43;;;2.00;76.30;;;;;;4908315;29;20278;-86
2020/12/11 05:00:19;;;;;;;8.63;5.87;;;2.00;75.90;;;;;;4905821;29;20192;-85
2020/12/11 05:02:47;;;;;;;8.87;5.63;;;2.00;76.40;;;;;;4908487;29;20203;-86
2020/12/11 05:05:17;;;;;;;9.90;5.83;;;2.10;76.50;;;;;;4906519;29;20196;-85
2020/12/11 05:07:44;;;;;;;10.47;5.87;;;2.00;76.30;;;;;;4904385;29;20314;-86
2020/12/11 05:10:11;;;;;;;6.80;5.20;;;2.00;76.70;;;;;;4914723;29;20204;-86
2020/12/11 05:12:38;;;;;;;6.80;5.47;;;2.00;76.80;;;;;;4911668;29;20663;-86
2020/12/11 05:15:10;;;;;;;7.67;5.87;;;2.00;77.10;;;;;;4915306;29;20199;-87
2020/12/11 05:17:41;;;;;;;9.33;4.93;;;2.90;77.60;;;;;;4904653;29;20223;-86
2020/12/11 05:20:09;;;;;;;10.70;5.90;;;2.00;77.10;;;;;;4910261;29;20200;-86
2020/12/11 05:22:40;;;;;;;7.43;5.17;;;1.90;77.50;;;;;;4907878;29;20336;-86
2020/12/11 05:25:13;;;;;;;10.50;6.40;;;1.90;77.90;;;;;;4898687;29;20184;-86
2020/12/11 05:27:48;;;;;;;8.87;5.70;;;1.90;78.30;;;;;;4903624;29;20195;-86
2020/12/11 05:30:14;;;;;;;6.50;4.70;;;;;;;;;;4906653;29;20216;-87
2020/12/11 05:32:40;;;;;;;7.37;5.23;;;;;;;;;;4907969;29;20252;-86
2020/12/11 05:35:29;;;;;;;9.60;5.83;;;2.10;77.70;;;;;;4909296;29;20432;-85
2020/12/11 05:38:02;;;;;;;7.70;5.47;;;2.10;76.90;;;;;;4905366;29;20263;-85
2020/12/11 05:40:39;;;;;;;10.40;5.00;;;1.30;75.70;;;;;;4920897;29;20784;-85
2020/12/11 05:43:18;;;;;;;6.27;4.53;;;2.10;76.40;;;;;;4915173;29;20283;-85
2020/12/11 05:45:53;;;;;;;8.03;5.63;;;2.00;76.80;;;;;;4913750;29;20189;-85
2020/12/11 05:48:34;;;;;;;7.33;4.67;;;2.00;77.20;;;;;;4907867;29;20203;-86
2020/12/11 05:51:14;;;;;;;7.50;4.53;;;2.00;77.10;;;;;;4923147;29;20197;-86
2020/12/11 05:53:39;;;;;;;7.67;5.23;;;1.90;77.40;;;;;;4912908;29;20244;-85
2020/12/11 05:56:08;;;;;;;7.93;4.37;;;1.90;77.40;;;;;;4918988;29;20232;-85
2020/12/11 05:58:34;;;;;;;9.10;5.97;;;1.80;77.80;;;;;;4914073;29;20220;-86
2020/12/11 06:01:00;;;;;;;9.07;4.77;;;1.80;78.10;;;;;;4910735;29;20233;-85
2020/12/11 06:03:27;;;;;;;8.27;5.27;;;1.80;78.60;;;;;;4913530;29;20192;-86
2020/12/11 06:05:59;;;;;;;10.07;6.23;;;1.80;79.00;;;;;;4911919;29;20645;-86
2020/12/11 06:08:28;;;;;;;8.03;5.07;;;1.70;79.00;;;;;;4901418;29;20668;-85
2020/12/11 06:10:54;;;;;;;9.60;4.97;;;1.70;79.20;;;;;;4911101;29;20200;-85
2020/12/11 06:13:38;;;;;;;7.67;4.83;;;1.70;79.30;;;;;;4924297;29;20187;-85
2020/12/11 06:16:05;;;;;;;11.30;6.43;;;1.70;79.30;;;;;;4911098;29;20530;-85
2020/12/11 06:18:34;;;;;;;6.43;4.60;;;1.70;79.40;;;;;;4922213;29;20219;-85
2020/12/11 06:21:01;;;;;;;6.30;4.70;;;1.70;79.50;;;;;;4906551;29;20196;-85
2020/12/11 06:23:31;;;;;;;10.80;6.20;;;1.70;79.30;;;;;;4920445;29;20273;-86
2020/12/11 06:25:57;;;;;;;8.53;5.37;;;;;;;;;;4932461;29;20220;-86
2020/12/11 06:28:37;;;;;;;7.53;5.13;;;1.70;79.70;;;;;;4919672;29;20210;-86
2020/12/11 06:31:11;;;;;;;7.50;5.07;;;1.60;79.70;;;;;;4917841;29;20180;-86
2020/12/11 06:33:39;;;;;;;10.33;6.70;;;1.70;79.80;;;;;;4929767;29;20277;-86
2020/12/11 06:36:05;;;;;;;8.93;5.13;;;1.70;79.50;;;;;;4928344;29;20215;-86
2020/12/11 06:38:42;;;;;;;10.37;6.37;;;1.70;79.60;;;;;;4909925;29;20239;-86
2020/12/11 06:41:09;;;;;;;8.47;5.73;;;1.70;80.20;;;;;;4905907;29;20227;-86
2020/12/11 06:43:45;;;;;;;8.90;5.87;;;1.70;80.50;;;;;;4917006;29;20219;-87
2020/12/11 06:46:19;;;;;;;8.40;5.43;;;1.70;80.60;;;;;;4912094;29;20196;-87
2020/12/11 06:49:10;;;;;;;9.70;5.90;;;1.80;80.30;;;;;;4916093;29;20199;-88
2020/12/11 06:51:56;;;;;;;7.63;5.10;;;1.80;80.00;;;;;;4902833;29;20207;-88
2020/12/11 06:54:22;;;;;;;7.60;5.70;;;;;;;;;;4907089;29;20246;-88
2020/12/11 06:56:52;;;;;;;9.40;5.47;;;1.90;78.80;;;;;;4911066;29;20188;-89
2020/12/11 06:59:25;;;;;;;8.47;5.60;;;2.10;78.50;;;;;;4904958;29;20172;-90
2020/12/11 07:01:51;;;;;;;15.33;7.10;;;;;;;;;;4902733;29;20192;-89
2020/12/11 07:04:17;;;;;;;9.63;5.50;;;;;;;;;;4907023;29;20264;-89
2020/12/11 07:06:53;;;;;;;7.63;5.23;;;2.20;76.90;;;;;;4920904;29;20223;-89
2020/12/11 07:09:20;;;;;;;7.97;5.07;;;2.30;76.60;;;;;;4910095;29;20273;-89
2020/12/11 07:11:48;;;;;;;10.10;6.10;;;2.30;76.40;;;;;;4900519;29;20208;-88
2020/12/11 07:14:14;;;;;;;10.60;6.50;;;2.40;75.90;;;;;;4910751;29;20199;-89
2020/12/11 07:16:44;;;;;;;11.03;6.53;;;2.40;75.40;;;;;;4910829;29;20219;-88
2020/12/11 07:19:10;;;;;;;8.33;5.57;;;2.40;75.50;;;;;;4909843;29;20274;-88
2020/12/11 07:21:40;;;;;;;10.23;5.73;;;2.40;74.90;;;;;;4903161;29;20208;-88
2020/12/11 07:24:08;;;;;;;8.50;5.90;;;2.40;75.10;;;;;;4907833;29;20212;-88
2020/12/11 07:26:34;;;;;;;10.97;6.83;;;2.40;74.80;;;;;;4900444;29;20200;-88
2020/12/11 07:29:05;;;;;;;11.93;7.27;;;2.40;74.40;;;;;;4897309;29;20326;-88
2020/12/11 07:31:41;;;;;;;10.97;6.20;;;2.50;74.30;;;;;;4893805;29;20192;-88
2020/12/11 07:34:17;;;;;;;11.70;7.83;;;2.50;74.30;;;;;;4885453;29;20308;-89
2020/12/11 07:36:57;;;;;;;10.33;6.17;;;2.50;74.30;;;;;;4889213;29;20200;-90
2020/12/11 07:39:26;;;;;;;11.40;6.53;;;2.60;74.40;;;;;;4893061;29;20184;-88
2020/12/11 07:41:54;;;;;;;9.93;5.63;;;2.60;74.40;;;;;;4895701;29;20207;-89
2020/12/11 07:44:24;;;;;;;8.40;5.73;;;2.70;74.40;;;;;;4891651;29;20210;-88
2020/12/11 07:46:51;;;;;;;9.50;6.47;;;2.60;74.40;;;;;;4875255;29;20192;-89
2020/12/11 07:49:17;;;;;;;8.93;6.93;;;2.70;74.50;;;;;;4883994;29;20208;-88
2020/12/11 07:51:50;;;;;;;11.33;6.90;;;2.70;74.50;;;;;;4887516;29;20196;-88
2020/12/11 07:54:18;;;;;;;7.33;6.03;;;2.60;74.40;;;;;;4899764;29;20219;-88
2020/12/11 07:56:44;;;;;;;8.93;5.90;;;;;;;;;;4905041;29;20194;-88
2020/12/11 07:59:15;;;;;;;12.90;7.07;;;2.70;74.00;;;;;;4914870;29;20206;-87
2020/12/11 08:01:46;;;;;;;12.30;6.60;;;2.80;73.70;;;;;;4884563;29;20240;-89
2020/12/11 08:04:15;;;;;;;14.03;7.57;;;2.80;73.30;;;;;;4893577;29;20196;-88
2020/12/11 08:06:41;;;;;;;11.23;6.87;;;;;;;;;;4893834;29;20223;-87
2020/12/11 08:09:11;;;;;;;9.60;6.70;;;2.90;73.60;;;;;;4893993;29;20206;-88
2020/12/11 08:11:43;;;;;;;13.40;7.03;;;2.90;73.80;;;;;;4903377;29;20196;-87
2020/12/11 08:14:10;;;;;;;11.97;6.20;;;;;;;;;;4891921;29;20211;-88
2020/12/11 08:16:36;;;;;;;15.40;6.83;;;;;;;;;;4892231;29;20673;-88
2020/12/11 08:19:08;;;;;;;12.00;6.57;;;3.00;72.40;;;;;;4897730;29;20722;-89
2020/12/11 08:21:34;;;;;;;10.70;6.47;;;;;;;;;;4897141;29;20199;-88
2020/12/11 08:24:00;;;;;;;11.70;7.67;;;;;;;;;;4883055;29;20340;-88
2020/12/11 08:26:36;;;;;;;10.23;6.53;;;3.00;72.20;;;;;;4882179;29;20233;-87
2020/12/11 08:29:08;;;;;;;10.23;6.53;;;3.00;72.10;;;;;;4883448;29;20241;-89
2020/12/11 08:31:43;;;;;;;9.90;5.80;;;3.00;72.10;;;;;;4880042;29;20195;-89
2020/12/11 08:34:14;;;;;;;12.20;6.17;;;3.00;72.50;;;;;;4886287;29;20200;-89
2020/12/11 08:36:48;;;;;;;10.43;6.83;;;3.10;72.40;;;;;;4888227;29;20248;-90
2020/12/11 08:39:16;;;;;;;12.73;7.07;;;3.10;71.70;;;;;;4887855;29;20219;-89
2020/12/11 08:44:57;;;;;;;10.10;6.10;;;;;;;;;;4900908;29;20196;-89
2020/12/11 08:50:24;;;;;;;12.10;6.50;;;3.40;70.80;;;;;;4900175;29;20243;-88
2020/12/11 08:53:01;;;;;;;14.80;7.50;;;3.40;70.30;;;;;;4886597;29;20675;-89
2020/12/11 08:55:27;;;;;;;10.90;6.93;;;;;;;;;;4901550;29;20788;-88
2020/12/11 08:57:53;;;;;;;11.73;7.93;;;;;;;;;;4908728;29;20211;-88
2020/12/11 09:00:19;;;;;;;7.63;6.07;;;;;;;;;;4912741;29;20255;-89
2020/12/11 09:02:45;;;;;;;9.07;6.07;;;;;;;;;;4915944;29;20195;-88
2020/12/11 09:05:12;;;;;;;13.03;6.97;;;;;;;;;;4917095;29;20208;-87
2020/12/11 09:07:42;;;;;;;10.47;6.63;;;;;;;;;;4909377;29;20204;-87
2020/12/11 09:10:14;;;;;;;11.57;6.90;;;;;;;;;;4911167;29;20199;-89
2020/12/11 09:12:46;;;;;;;10.67;6.47;;;;;;;;;;4928839;29;20202;-88
2020/12/11 09:15:12;;;;;;;9.27;5.87;;;;;;;;;;4913159;29;20223;-89
2020/12/11 09:17:41;;;;;;;11.23;7.43;;;;;;;;;;4908247;29;20231;-90
2020/12/11 09:20:10;;;;;;;9.57;6.13;;;;;;;;;;4917155;29;20196;-87
2020/12/11 09:22:36;;;;;;;10.67;6.43;;;;;;;;;;4925012;29;20183;-88
2020/12/11 09:25:04;;;;;;;11.43;6.57;;;4.00;67.20;;;;;;4906129;29;20207;-90
2020/12/11 09:27:31;;;;;;;10.60;6.83;;;;;;;;;;4919953;29;20203;-88
2020/12/11 09:30:11;;;;;;;10.77;7.30;;;;;;;;;;4916643;29;20187;-88
2020/12/11 09:32:54;;;;;;;14.33;7.53;;;4.10;67.30;;;;;;4915774;29;20206;-87
2020/12/11 09:35:20;;;;;;;13.30;7.30;;;;;;;;;;4915662;29;20183;-88
2020/12/11 09:37:49;;;;;;;11.53;6.87;;;;;;;;;;4911058;29;20306;-88
2020/12/11 09:40:28;;;;;;;10.13;6.27;;;4.10;66.80;;;;;;4912394;29;20614;-88
2020/12/11 09:45:44;;;;;;;8.20;6.03;;;;;;;;;;4892981;29;20237;-88
2020/12/11 09:48:18;;;;;;;9.30;6.60;;;;;;;;;;4892194;29;20700;-90
2020/12/11 09:50:54;;;;;;;10.20;6.57;;;4.50;66.50;;;;;;4891610;29;20276;-89
2020/12/11 09:53:34;;;;;;;10.73;6.87;;;4.50;65.10;;;;;;4891928;29;20192;-89
2020/12/11 09:56:04;;;;;;;8.70;5.97;;;;;;;;;;4890670;29;20599;-89
2020/12/11 09:58:30;;;;;;;11.80;6.53;;;;;;;;;;4888278;29;20731;-89
2020/12/11 10:00:56;;;;;;;9.77;6.40;;;;;;;;;;4905584;29;20226;-89
2020/12/11 10:03:24;;;;;;;12.37;6.83;;;;;;;;;;4899732;29;20249;-90
2020/12/11 10:05:50;;;;;;;11.27;6.47;;;;;;;;;;4892630;29;20184;-89
2020/12/11 10:08:16;;;;;;;10.37;6.20;;;;;;;;;;4890478;29;20696;-89
2020/12/11 10:10:42;;;;;;;9.47;6.10;;;;;;;;;;4890876;29;20222;-89
2020/12/11 10:13:08;;;;;;;8.80;7.00;;;;;;;;;;4898339;29;20196;-89
2020/12/11 10:15:35;;;;;;;7.93;5.53;;;;;;;;;;4905787;29;20204;-89
2020/12/11 10:18:05;;;;;;;12.83;7.37;;;;;;;;;;4891798;29;20231;-89
2020/12/11 10:20:31;;;;;;;10.17;6.47;;;;;;;;;;4890971;29;20188;-89
2020/12/11 10:22:58;;;;;;;11.67;6.03;;;;;;;;;;4894506;29;20189;-89
2020/12/11 10:25:24;;;;;;;9.97;6.03;;;;;;;;;;4895386;29;20227;-90
2020/12/11 10:27:51;;;;;;;10.37;5.90;;;;;;;;;;4902290;29;20207;-89
2020/12/11 10:30:17;;;;;;;9.90;6.07;;;;;;;;;;4901630;29;20196;-89
2020/12/11 10:32:43;;;;;;;8.20;5.80;;;4.70;63.40;;;;;;4903473;29;20188;-89
2020/12/11 10:35:09;;;;;;;7.73;5.60;;;;;;;;;;4893257;29;20202;-88
2020/12/11 10:37:35;;;;;;;8.83;6.07;;;4.70;63.60;;;;;;4910579;29;20706;-89
2020/12/11 10:40:03;;;;;;;9.50;6.97;;;4.70;63.60;;;;;;4910477;29;20211;-88
2020/12/11 10:42:29;;;;;;;10.30;6.33;;;;;;;;;;4914110;29;20224;-88
2020/12/11 10:44:56;;;;;;;10.43;6.60;;;;;;;;;;4925363;29;20188;-89
2020/12/11 10:47:22;;;;;;;8.87;6.40;;;;;;;;;;4892141;29;20204;-90
2020/12/11 10:49:48;;;;;;;9.13;5.67;;;;;;;;;;4892343;29;20197;-88
2020/12/11 10:52:16;;;;;;;10.27;6.27;;;4.80;63.10;;;;;;4891307;29;20211;-88
2020/12/11 10:54:42;;;;;;;11.23;7.03;;;4.90;63.80;;;;;;4904636;29;20663;-89
2020/12/11 10:57:08;;;;;;;10.40;6.13;;;;;;;;;;4908683;29;20252;-89
2020/12/11 10:59:33;;;;;;;8.13;5.17;;;5.00;63.20;;;;;;4903538;29;20189;-89
2020/12/11 11:01:59;;;;;;;10.43;6.10;;;;;;;;;;4907517;29;20256;-89
2020/12/11 11:04:26;;;;;;;11.70;6.90;;;;;;;;;;4898962;29;20193;-89
2020/12/11 11:07:05;;;;;;;10.00;7.03;;;;;;;;;;4901104;29;20219;-88
2020/12/11 11:12:51;;;;;;;11.03;6.37;;;5.00;63.40;;;;;;4909081;29;20210;-89
2020/12/11 11:28:08;;;;;;;9.23;6.30;;;4.60;67.80;;;;;;4892216;29;20188;-88
2020/12/11 11:30:34;;;;;;;13.27;7.27;;;4.60;67.80;;;;;;4889731;29;20200;-88
2020/12/11 11:33:00;;;;;;;8.07;5.93;;;4.60;67.80;;;;;;4903503;29;20195;-88
2020/12/11 11:35:28;;;;;;;10.30;7.20;;;4.60;67.50;;;;;;4890987;29;20200;-88
2020/12/11 11:37:54;;;;;;;12.30;7.50;;;;;;;;;;4908586;29;20208;-88
2020/12/11 11:40:20;;;;;;;12.53;7.17;;;;;;;;;;4904896;29;20699;-88
2020/12/11 11:42:46;;;;;;;10.33;6.57;;;;;;;;;;4895329;29;20201;-89
2020/12/11 11:45:17;;;;;;;9.73;5.67;;;;;;;;;;4889068;29;20260;-89
2020/12/11 11:47:47;;;;;;;9.40;6.07;;;4.70;66.90;;;;;;4887855;29;20181;-89
2020/12/11 11:50:24;;;;;;;10.87;6.43;;;;;;;;;;4889399;29;20637;-89
2020/12/11 11:53:05;;;;;;;12.30;6.73;;;;;;;;;;4893146;29;20267;-88
2020/12/11 11:55:31;;;;;;;11.97;7.33;;;;;;;;;;4892180;29;20184;-89
2020/12/11 11:57:58;;;;;;;13.50;8.03;;;;;;;;;;4895207;29;20231;-89
2020/12/11 12:00:43;;;;;;;10.10;7.07;;;5.40;64.20;;;;;;4895850;29;20157;-90
2020/12/11 12:03:09;;;;;;;11.90;6.77;;;;;;;;;;4894772;29;20199;-89
2020/12/11 12:05:35;;;;;;;9.53;6.43;;;5.40;62.50;;;;;;4892389;29;20189;-89
2020/12/11 12:08:01;;;;;;;11.23;6.73;;;;;;;;;;4891381;29;20208;-89
2020/12/11 12:10:27;;;;;;;10.47;7.00;;;5.30;63.20;;;;;;4895286;29;20548;-89
2020/12/11 12:12:52;;;;;;;10.53;6.27;;;5.20;63.30;;;;;;4911226;29;20176;-89
2020/12/11 12:15:22;;;;;;;10.53;6.63;;;;;;;;;;4907630;29;20192;-89
2020/12/11 12:18:04;;;;;;;11.20;6.83;;;5.10;63.70;;;;;;4909241;29;20203;-90
2020/12/11 12:28:41;;;;;;;11.27;6.37;;;5.40;63.30;;;;;;4915345;29;20175;-89
2020/12/11 12:31:08;;;;;;;12.13;7.23;;;;;;;;;;4913358;29;20184;-88
2020/12/11 12:43:42;;;;;;;11.03;6.80;;;6.30;59.70;;;;;;4895933;29;20184;-89
2020/12/11 12:46:08;;;;;;;11.00;6.77;;;6.50;59.50;;;;;;4912948;29;20190;-89
2020/12/11 12:48:34;;;;;;;14.30;8.60;;;;;;;;;;4911635;29;20440;-90
2020/12/11 12:51:00;;;;;;;11.23;7.53;;;;;;;;;;4897727;29;20192;-89
2020/12/11 12:53:29;;;;;;;11.60;7.43;;;;;;;;;;4902174;29;20306;-90
2020/12/11 12:58:45;;;;;;;10.67;6.60;;;6.80;57.10;;;;;;4901356;29;20851;-90
2020/12/11 13:01:19;;;;;;;9.37;5.90;;;;;;;;;;4913840;29;20271;-90
2020/12/11 13:06:47;;;;;;;7.53;5.70;;;6.40;58.40;;;;;;4907097;29;20222;-90
2020/12/11 13:09:14;;;;;;;11.37;6.17;;;;;;;;;;4908610;29;20624;-90
2020/12/11 13:11:40;;;;;;;8.87;6.03;;;;;;;;;;4930183;29;20214;-90
2020/12/11 13:14:07;;;;;;;13.23;8.20;;;6.30;58.70;;;;;;4931749;29;20216;-90
2020/12/11 13:16:33;;;;;;;10.77;6.10;;;;;;;;;;4896516;29;20225;-89
2020/12/11 13:19:00;;;;;;;12.07;6.60;;;;;;;;;;4929917;29;20214;-89
2020/12/11 13:21:36;;;;;;;9.17;6.20;;;6.20;59.20;;;;;;4912280;29;20710;-90
2020/12/11 13:26:50;;;;;;;13.37;6.70;;;;;;;;;;4930994;29;20210;-90
2020/12/11 13:29:19;;;;;;;13.57;6.83;;;;;;;;;;4912726;29;20184;-90
2020/12/11 13:31:45;;;;;;;9.80;6.17;;;6.00;60.30;;;;;;4910017;29;20286;-90
2020/12/11 13:34:11;;;;;;;10.90;5.90;;;6.00;60.40;;;;;;4926798;29;20230;-90
2020/12/11 13:36:39;;;;;;;9.80;5.93;;;6.00;60.40;;;;;;4918876;29;20232;-90
2020/12/11 13:39:06;;;;;;;11.77;7.13;;;;;;;;;;4932055;29;20215;-90
2020/12/11 13:41:32;;;;;;;11.10;5.73;;;;;;;;;;4912107;29;20215;-91
2020/12/11 13:43:58;;;;;;;9.57;6.30;;;;;;;;;;4904481;29;20201;-90
2020/12/11 13:46:24;;;;;;;12.87;6.83;;;5.80;62.80;;;;;;4908528;29;20226;-89
2020/12/11 13:51:26;;;;;;;44.00;9.17;;;;;;;;;;5931582;23;21648;-74
2020/12/11 14:20:13;;;;;;;26.83;7.83;;;5.60;64.90;;;;;;5713993;23;20284;-74
2020/12/11 14:54:12;;;;;;;10.53;6.20;;;5.40;68.40;;;;;;5579007;23;20715;-72
2020/12/11 15:01:52;;;;;;;37.93;9.60;;;;;;;;;;5929803;23;20236;-74
2020/12/11 15:04:18;;;;;;;28.40;7.93;;;;;;;;;;5774280;23;20256;-74
2020/12/11 15:22:08;;;;;;;24.50;7.57;;;;;;;;;;5463425;23;20462;-73
2020/12/11 15:24:34;;;;;;;10.20;5.97;;;;;;;;;;5437426;23;20235;-73
2020/12/11 15:58:09;;;;;;;37.40;9.43;;;;;;;;;;5928676;23;21436;-75
2020/12/11 16:42:07;;;;;;;18.47;7.37;;;4.80;77.80;;;;;;5681101;23;20451;-75
2020/12/11 17:10:31;;;;;;;35.33;9.60;;;4.70;80.40;;;;;;5910032;23;22137;-76
2020/12/11 17:36:19;;;;;;;18.23;7.57;;;;;;;;;;5800011;23;20235;-75
2020/12/11 19:09:37;;;;;;;15.03;6.83;;;;;;;;;;5755633;23;20241;-75
2020/12/11 19:14:39;;;;;;;11.00;7.53;;;;;;;;;;5755247;23;20294;-75
2020/12/11 19:35:15;;;;;;;41.97;15.97;;;4.50;90.40;;;;;;5617240;23;20321;-73
2020/12/11 19:50:35;;;;;;;14.37;7.67;;;;;;;;;;5545270;23;20235;-76
2020/12/11 20:06:04;;;;;;;24.93;7.77;;;;;;;;;;5710024;23;20218;-76
2020/12/11 20:55:14;;;;;;;25.33;8.30;;;4.50;92.00;;;;;;5841163;23;21816;-75